Terminal Aerodrome Forecast
Issued by NWS

Current Version | Previous Version | Text Only | Print | Product List | Glossary On
Versions: 1 2 3 4 5 6 7 8 9 10 11 12 13 14 15 16 17 18 19 20 21 22 23
000
FTUS41 KPBZ 210520
TAFLBE
TAF
KLBE 210520Z 2106/2206 26012KT P6SM BKN050
     FM211500 26015G30KT P6SM BKN050
     FM212000 25018G35KT P6SM BKN050
     FM220100 24010G20KT P6SM VCSH BKN050=

USA.gov is the U.S. government's official web portal to all federal, state and local government web resources and services.